Observations for Trim Market St
| Time | AQI | Temp °C | Hum % | Pres Pa | CO μg/m³ | H₂S μg/m³ | NO μg/m³ | NO₂ μg/m³ | O₃ μg/m³ | SO₂ μg/m³ | PM1 μg/m³ | PM2.5 μg/m³ | PM10 μg/m³ |
|---|---|---|---|---|---|---|---|---|---|---|---|---|---|
| Tuesday 14 July 2026 | |||||||||||||
| 02:24 | 1 | 17.2 | 70 | 55,830 | 0.1 | 0 | 0 | 4.69 | 21.58 | 0 | 2.14 | 3.55 | 6.27 |
| 02:23 | 1 | 17.2 | 70 | 55,857 | 0.09 | 0 | 0 | 4.89 | 19.49 | 0 | 2.85 | 4.53 | 8.79 |
| 02:22 | 1 | 17.2 | 70 | 55,872 | 0.09 | 0 | 1.53 | 4.1 | 22.82 | 0 | 1.43 | 3.56 | 6.27 |
| 02:21 | 1 | 17.2 | 70 | 55,867 | 0.1 | 0 | 0 | 3.8 | 22.58 | 0 | 2.14 | 3.56 | 5.64 |
| 02:20 | 1 | 17.2 | 70 | 55,878 | 0.09 | 0 | 0 | 5.6 | 19.75 | 0 | 1.43 | 3.07 | 5.01 |
| 02:15 | 1 | 17.3 | 69 | 55,976 | 0.09 | 0 | 0 | 4.3 | 23.14 | 0 | 2.85 | 4.54 | 6.9 |
| 02:07 | 1 | 17.3 | 69 | 56,157 | 0.1 | 0 | 0 | 4.02 | 25.28 | 0 | 1.43 | 3.58 | 5.64 |
| 02:06 | 1 | 17.3 | 69 | 56,196 | 0.1 | 0 | 0 | 5.72 | 21.84 | 0 | 2.85 | 4.55 | 6.9 |
| 02:04 | 1 | 17.3 | 69 | 56,250 | 0.1 | 0 | 0 | 3.92 | 22.2 | 0 | 2.85 | 4.07 | 6.27 |
| 02:00 | 1 | 17.3 | 69 | 56,265 | 0.11 | 0 | 0 | 4.83 | 22.3 | 0 | 2.14 | 3.1 | 5.63 |
| 01:59 | 1 | 17.3 | 69 | 56,292 | 0.1 | 0 | 0 | 5.13 | 23.29 | 0 | 1.43 | 3.58 | 5.63 |
| 01:58 | 1 | 17.3 | 69 | 56,320 | 0.1 | 0 | 0 | 5.25 | 24.46 | 0 | 1.43 | 3.59 | 6.9 |
| 01:57 | 1 | 17.3 | 69 | 56,331 | 0.11 | 0 | 0.29 | 4.65 | 20.44 | 0 | 1.43 | 3.1 | 5 |
| 01:56 | 1 | 17.3 | 69 | 56,351 | 0.14 | 0 | 0 | 5.65 | 23.17 | 0 | 1.43 | 3.59 | 5.63 |
| 01:55 | 1 | 17.4 | 69 | 56,360 | 0.1 | 0 | 0.53 | 5.02 | 22.4 | 0 | 2.14 | 3.59 | 6.9 |
| 01:54 | 1 | 17.3 | 69 | 56,386 | 0.11 | 0 | 0 | 4.85 | 21.99 | 0 | 2.14 | 3.59 | 6.26 |
| 01:53 | 1 | 17.4 | 69 | 56,386 | 0.1 | 0 | 0 | 4.03 | 22.89 | 0 | 1.43 | 3.59 | 5.63 |
| 01:52 | 1 | 17.3 | 69 | 56,375 | 0.11 | 0 | 0 | 4.36 | 22.03 | 0 | 0.71 | 3.11 | 6.26 |
| 01:51 | 1 | 17.4 | 69 | 56,367 | 0.1 | 0 | 0 | 3.92 | 23.44 | 0 | 2.14 | 3.1 | 6.26 |
| 01:50 | 1 | 17.4 | 69 | 56,353 | 0.09 | 0 | 0 | 4.22 | 23.89 | 0 | 0.71 | 2.61 | 4.37 |